Kibele — 9HA3346 — position and weather

sailwx.info

Track history (hours):
 
Tides and Currents Weather Stations Pressure Air Temp Water Temp Dewpoint Dewpoint Depression Visibility Wind Speed Wind Dir Waves Ship Positions

Kibele

Last reported at 2017-Dec-02 04:18 UTC. Time now 2017-Dec-17 06:29 UTC.
Position N 08°47' W 015°07'.
Warning: this ship's position is 15 days out of date.

Length 116 m; draft 6.2 m.

Type: Cargo ship. MMSI: 229457000.

Date/timePositionNaut miles runAvg speedWind from/ knotsBaromVisibWave heightAir tempDewpointWater temp
2017-Dec-02 04:18N 08°47' W 015°07'310.8
2017-Dec-02 04:00N 08°49' W 015°10'510.7
2017-Dec-02 03:30N 08°52' W 015°14'510.7
2017-Dec-02 03:00N 08°55' W 015°19'  
2017-Nov-27 02:44N 27°25' W 013°48'210.5
2017-Nov-27 02:30N 27°27' W 013°47'510.4
2017-Nov-27 02:00N 27°31' W 013°43'1610.9
2017-Nov-27 00:34N 27°43' W 013°33'111.3
2017-Nov-27 00:30N 27°44' W 013°32'611.2
2017-Nov-27 00:00N 27°49' W 013°29'910.8
2017-Nov-26 23:10N 27°56' W 013°23'53810.6
2017-Nov-24 20:19N 35°06' W 007°03'410.1
2017-Nov-24 19:57N 35°09' W 007°00'4 9.9
2017-Nov-24 19:30N 35°12' W 006°56'5 9.8
2017-Nov-24 18:58N 35°16' W 006°52'510.1
2017-Nov-24 18:29N 35°20' W 006°48'510.1
2017-Nov-24 18:00N 35°23' W 006°44'7 9.9
2017-Nov-24 17:20N 35°28' W 006°39'410.1
2017-Nov-24 16:56N 35°31' W 006°35'510.0
2017-Nov-24 16:27N 35°35' W 006°31'4 9.9
2017-Nov-24 16:00N 35°37' W 006°27'510.1
2017-Nov-24 15:30N 35°40' W 006°22'510.3
2017-Nov-24 15:00N 35°43' W 006°16'510.5
2017-Nov-24 14:30N 35°45' W 006°11'3310.0
2017-Nov-24 11:12N 35°58' W 005°33'2 8.3
2017-Nov-24 10:59N 35°59' W 005°31'6 7.9
2017-Nov-24 10:15N 36°01' W 005°25'2 7.2
2017-Nov-24 09:59N 36°03' W 005°24'4 1.4
2017-Nov-24 06:48N 36°07' W 005°21'0 0.0
2017-Nov-24 03:36N 36°07' W 005°21'0 0.1
2017-Nov-24 03:30N 36°07' W 005°21'0 0.0
2017-Nov-24 03:00N 36°07' W 005°21'0 0.0
2017-Nov-24 01:45N 36°07' W 005°21'0 0.0
2017-Nov-24 01:30N 36°07' W 005°21'0 0.0
2017-Nov-24 00:36N 36°07' W 005°21'0 0.1
2017-Nov-24 00:30N 36°07' W 005°21'0 0.0
2017-Nov-23 23:54N 36°07' W 005°21'0 0.1
2017-Nov-23 23:27N 36°07' W 005°21'0 0.0
2017-Nov-23 21:57N 36°07' W 005°21'0 0.1
2017-Nov-23 21:24N 36°07' W 005°21'0 0.1
2017-Nov-23 21:00N 36°07' W 005°21'0 0.1
2017-Nov-23 20:30N 36°07' W 005°21'0 0.1
2017-Nov-23 20:00N 36°07' W 005°21'2 1.1
2017-Nov-23 18:29N 36°05' W 005°21'2 4.4
2017-Nov-23 18:00N 36°06' W 005°18'3 5.3
2017-Nov-23 17:30N 36°07' W 005°15'  
Track history (hours):
 
Tides and Currents Weather Stations Pressure Air Temp Water Temp Dewpoint Dewpoint Depression Visibility Wind Speed Wind Dir Waves Ship Positions

Kibele

Last reported at 2017-Dec-02 04:18 UTC. Time now 2017-Dec-17 06:29 UTC.
Position N 08°47' W 015°07'.
Warning: this ship's position is 15 days out of date.

Length 116 m; draft 6.2 m.

Type: Cargo ship. MMSI: 229457000.

Date/timePositionNaut miles runAvg speedWind from/ knotsBaromVisibWave heightAir tempDewpointWater temp
2017-Dec-02 04:18N 08°47' W 015°07'310.8
2017-Dec-02 04:00N 08°49' W 015°10'510.7
2017-Dec-02 03:30N 08°52' W 015°14'510.7
2017-Dec-02 03:00N 08°55' W 015°19'  
2017-Nov-27 02:44N 27°25' W 013°48'210.5
2017-Nov-27 02:30N 27°27' W 013°47'510.4
2017-Nov-27 02:00N 27°31' W 013°43'1610.9
2017-Nov-27 00:34N 27°43' W 013°33'111.3
2017-Nov-27 00:30N 27°44' W 013°32'611.2
2017-Nov-27 00:00N 27°49' W 013°29'910.8
2017-Nov-26 23:10N 27°56' W 013°23'53810.6
2017-Nov-24 20:19N 35°06' W 007°03'410.1
2017-Nov-24 19:57N 35°09' W 007°00'4 9.9
2017-Nov-24 19:30N 35°12' W 006°56'5 9.8
2017-Nov-24 18:58N 35°16' W 006°52'510.1
2017-Nov-24 18:29N 35°20' W 006°48'510.1
2017-Nov-24 18:00N 35°23' W 006°44'7 9.9
2017-Nov-24 17:20N 35°28' W 006°39'410.1
2017-Nov-24 16:56N 35°31' W 006°35'510.0
2017-Nov-24 16:27N 35°35' W 006°31'4 9.9
2017-Nov-24 16:00N 35°37' W 006°27'510.1
2017-Nov-24 15:30N 35°40' W 006°22'510.3
2017-Nov-24 15:00N 35°43' W 006°16'510.5
2017-Nov-24 14:30N 35°45' W 006°11'3310.0
2017-Nov-24 11:12N 35°58' W 005°33'2 8.3
2017-Nov-24 10:59N 35°59' W 005°31'6 7.9
2017-Nov-24 10:15N 36°01' W 005°25'2 7.2
2017-Nov-24 09:59N 36°03' W 005°24'4 1.4
2017-Nov-24 06:48N 36°07' W 005°21'0 0.0
2017-Nov-24 03:36N 36°07' W 005°21'0 0.1
2017-Nov-24 03:30N 36°07' W 005°21'0 0.0
2017-Nov-24 03:00N 36°07' W 005°21'0 0.0
2017-Nov-24 01:45N 36°07' W 005°21'0 0.0
2017-Nov-24 01:30N 36°07' W 005°21'0 0.0
2017-Nov-24 00:36N 36°07' W 005°21'0 0.1
2017-Nov-24 00:30N 36°07' W 005°21'0 0.0
2017-Nov-23 23:54N 36°07' W 005°21'0 0.1
2017-Nov-23 23:27N 36°07' W 005°21'0 0.0
2017-Nov-23 21:57N 36°07' W 005°21'0 0.1
2017-Nov-23 21:24N 36°07' W 005°21'0 0.1
2017-Nov-23 21:00N 36°07' W 005°21'0 0.1
2017-Nov-23 20:30N 36°07' W 005°21'0 0.1
2017-Nov-23 20:00N 36°07' W 005°21'2 1.1
2017-Nov-23 18:29N 36°05' W 005°21'2 4.4
2017-Nov-23 18:00N 36°06' W 005°18'3 5.3
2017-Nov-23 17:30N 36°07' W 005°15'  

Dump ship's entire track history